EmailTwitter


Surface observations / France / LFBO (07630)

Regions: Quebec | Canada | USA | Europe | France | UK | Elsewhere
Station
Display
Info & Location for LFBO (07630) | Help decoding METAR

Weather Conditions observed on 2018/10/15 at 15:00 UTC at TOULOUSE/BLAGNAC, FR (LFBO)

Sky conditions: overcast.

Temperature: 17.0 Celsius.

Dewpoint: 12.0 Celsius.

Relative Humidity: 72%

Winds: Northwest at 7 km/h or 4 knots.

Mean Sea level Pressure: 100.90 kilopascals.

Horizontal visibility: 6.21 statute miles or 9.94 kilometers.

Height of the Ceiling: 884 metres ( 2900 feet ).

Coded METAR:

LFBO 151500Z AUTO 33004KT 310V010 9999 FEW020 BKN029 OVC036 17/12 Q1009 NOSIG=